createdAt,value
2022-10-03T00:00:34.072Z,8.40
2022-10-03T00:10:55.070Z,8.30
2022-10-03T00:21:18.188Z,8.40
2022-10-03T00:31:26.857Z,8.50
2022-10-03T00:42:14.979Z,8.50
2022-10-03T00:52:34.776Z,8.50
2022-10-03T01:03:25.336Z,8.20
2022-10-03T01:13:43.085Z,8.20
2022-10-03T01:24:38.318Z,8.30
2022-10-03T01:34:48.550Z,8.30
2022-10-03T01:45:13.314Z,8.30
2022-10-03T01:55:24.857Z,8.20
2022-10-03T02:05:42.958Z,8.30
2022-10-03T02:15:59.018Z,8.50
2022-10-03T02:26:30.179Z,8.30
2022-10-03T02:37:27.904Z,8.50
2022-10-03T02:48:33.565Z,8.30
2022-10-03T02:59:28.769Z,8.00
2022-10-03T03:10:23.077Z,8.10
2022-10-03T03:20:58.369Z,8.00
2022-10-03T03:31:11.477Z,8.20
2022-10-03T03:41:49.222Z,8.30
2022-10-03T03:52:06.778Z,8.40
2022-10-03T04:02:27.895Z,8.40
2022-10-03T04:12:53.976Z,8.50
2022-10-03T04:23:18.593Z,8.50
2022-10-03T04:33:38.730Z,8.50
2022-10-03T04:43:52.530Z,8.50
2022-10-03T04:54:02.364Z,8.50
2022-10-03T05:04:17.769Z,8.60
2022-10-03T05:14:34.138Z,8.60
2022-10-03T05:24:48.510Z,8.60
2022-10-03T05:35:29.473Z,8.70
2022-10-03T05:45:49.685Z,8.80
2022-10-03T05:56:08.336Z,8.70
2022-10-03T06:06:22.686Z,8.90
2022-10-03T06:16:35.130Z,9.10
2022-10-03T06:27:23.761Z,9.30
2022-10-03T06:38:23.653Z,9.50
2022-10-03T06:49:15.673Z,9.70
2022-10-03T07:00:10.056Z,9.70
2022-10-03T07:10:44.183Z,10.00
2022-10-03T07:21:20.951Z,9.80
2022-10-03T07:31:40.348Z,10.00
2022-10-03T07:42:13.178Z,10.70
2022-10-03T07:52:54.244Z,10.20
2022-10-03T08:03:50.327Z,9.80
2022-10-03T08:14:11.553Z,9.60
2022-10-03T08:24:34.882Z,9.90
2022-10-03T08:35:18.842Z,9.90
2022-10-03T08:46:04.637Z,10.30
2022-10-03T08:56:13.510Z,10.10
2022-10-03T09:07:15.819Z,9.90
2022-10-03T09:17:49.355Z,10.30
2022-10-03T09:28:33.358Z,10.70
2022-10-03T09:39:22.581Z,11.00
2022-10-03T09:50:36.692Z,10.80
2022-10-03T10:01:08.504Z,12.20
2022-10-03T10:11:23.343Z,12.20
2022-10-03T10:22:02.786Z,11.70
2022-10-03T10:33:05.752Z,11.50
2022-10-03T10:44:11.327Z,10.90
2022-10-03T10:55:26.152Z,10.40
2022-10-03T11:06:12.838Z,10.30
2022-10-03T11:17:12.609Z,10.00
2022-10-03T11:28:18.848Z,10.00
2022-10-03T11:38:26.518Z,10.00
2022-10-03T11:48:41.064Z,10.10
2022-10-03T11:59:08.445Z,10.10
2022-10-03T12:09:20.361Z,10.10
2022-10-03T12:19:31.996Z,10.00
2022-10-03T12:29:40.185Z,10.10
2022-10-03T12:40:02.098Z,10.20
2022-10-03T12:50:19.435Z,10.20
2022-10-03T13:00:28.209Z,10.50
2022-10-03T13:10:42.447Z,11.10
2022-10-03T13:20:57.235Z,10.70
2022-10-03T13:31:09.801Z,10.50
2022-10-03T13:41:29.911Z,10.30
2022-10-03T13:51:44.609Z,12.80
2022-10-03T14:02:00.437Z,11.80
2022-10-03T14:12:24.806Z,11.40
2022-10-03T14:23:03.378Z,12.20
2022-10-03T14:33:21.937Z,13.00
2022-10-03T14:43:38.462Z,12.20
2022-10-03T14:53:49.125Z,12.10
2022-10-03T15:04:06.456Z,12.00
2022-10-03T15:14:11.520Z,11.40
2022-10-03T15:24:25.678Z,11.00
2022-10-03T15:34:33.656Z,10.80
2022-10-03T15:44:40.573Z,10.60
2022-10-03T15:54:49.881Z,10.30
2022-10-03T16:04:57.253Z,9.80
2022-10-03T16:15:17.488Z,9.60
2022-10-03T16:25:26.563Z,9.50
2022-10-03T16:35:37.912Z,9.40
2022-10-03T16:45:47.808Z,9.30
2022-10-03T16:55:59.335Z,9.20
2022-10-03T17:06:09.379Z,9.30
2022-10-03T17:16:18.009Z,9.20
2022-10-03T17:26:29.703Z,9.20
2022-10-03T17:37:15.382Z,9.10
2022-10-03T17:47:26.220Z,9.00
2022-10-03T17:57:36.962Z,9.10
2022-10-03T18:07:44.246Z,9.10
2022-10-03T18:18:05.614Z,9.00
2022-10-03T18:28:19.494Z,8.90
2022-10-03T18:38:26.032Z,8.80
2022-10-03T18:48:39.770Z,8.80
2022-10-03T18:58:46.573Z,8.80
2022-10-03T19:08:55.375Z,8.70
2022-10-03T19:19:07.301Z,8.60
2022-10-03T19:29:15.734Z,8.60
2022-10-03T19:39:20.551Z,8.70
2022-10-03T19:49:33.093Z,8.70
2022-10-03T19:59:46.554Z,8.70
2022-10-03T20:10:01.555Z,8.70
2022-10-03T20:20:09.632Z,8.80
2022-10-03T20:30:26.283Z,8.80
2022-10-03T20:40:35.923Z,8.80
2022-10-03T20:50:46.347Z,8.80
2022-10-03T21:00:54.005Z,8.80
2022-10-03T21:11:00.922Z,8.80
2022-10-03T21:21:09.482Z,8.70
2022-10-03T21:31:39.858Z,8.40
2022-10-03T21:42:01.864Z,8.40
2022-10-03T21:52:48.063Z,8.40
2022-10-03T22:03:03.023Z,8.40
2022-10-03T22:13:10.465Z,8.50
2022-10-03T22:23:27.501Z,8.40
2022-10-03T22:33:46.838Z,8.20
2022-10-03T22:43:51.298Z,8.30
2022-10-03T22:54:04.017Z,8.10
2022-10-03T23:04:15.546Z,8.10
2022-10-03T23:14:26.050Z,8.20
2022-10-03T23:24:35.969Z,8.40
2022-10-03T23:35:09.175Z,8.30
2022-10-03T23:45:16.758Z,8.10
2022-10-03T23:55:25.920Z,8.20
